Time;durP1;ratioP1;P1;durP2;ratioP2;P2;SDS_P1;SDS_P2;PMS_P1;PMS_P2;Temp;Humidity;BMP_temperature;BMP_pressure;BME280_temperature;BME280_humidity;BME280_pressure;Samples;Min_cycle;Max_cycle;Signal;HPM_P1;HPM_P2
2021/04/28 00:01:02;;;;;;;20.77;8.20;;;4.50;99.90;;;;;;5086289;28;20362;-68
2021/04/28 00:03:28;;;;;;;16.25;7.22;;;4.30;99.90;;;;;;5095804;28;20098;-67
2021/04/28 00:05:53;;;;;;;15.35;7.65;;;4.50;99.90;;;;;;5078390;28;20476;-68
2021/04/28 00:08:19;;;;;;;18.73;7.20;;;4.50;99.90;;;;;;5092166;28;20047;-68
2021/04/28 00:10:44;;;;;;;16.42;7.95;;;4.40;99.90;;;;;;5089637;28;20028;-68
2021/04/28 00:13:14;;;;;;;15.63;7.72;;;4.20;99.90;;;;;;5090161;28;20488;-67
2021/04/28 00:15:43;;;;;;;16.20;7.63;;;4.30;99.90;;;;;;5080317;28;20362;-68
2021/04/28 00:18:09;;;;;;;18.00;7.47;;;4.20;99.90;;;;;;5085015;28;20032;-67
2021/04/28 00:20:39;;;;;;;14.32;7.28;;;4.20;99.90;;;;;;5085479;28;20029;-66
2021/04/28 00:23:05;;;;;;;16.33;7.67;;;4.30;99.90;;;;;;5091618;28;20035;-66
2021/04/28 00:25:32;;;;;;;16.90;7.68;;;4.30;99.90;;;;;;5072676;28;20181;-67
2021/04/28 00:27:58;;;;;;;16.98;8.40;;;4.20;99.90;;;;;;5082478;28;20031;-67
2021/04/28 00:30:24;;;;;;;17.98;8.00;;;4.30;99.90;;;;;;5072795;28;20557;-66
2021/04/28 00:32:50;;;;;;;19.30;8.15;;;4.20;99.90;;;;;;5080736;28;20416;-67
2021/04/28 00:35:16;;;;;;;18.42;7.00;;;4.40;99.90;;;;;;5084939;28;20035;-67
2021/04/28 00:37:43;;;;;;;15.20;7.20;;;4.40;99.90;;;;;;5089538;28;20023;-66
2021/04/28 00:40:13;;;;;;;17.33;7.40;;;4.40;99.90;;;;;;5079208;28;20116;-67
2021/04/28 00:42:41;;;;;;;15.25;7.70;;;4.40;99.90;;;;;;5081588;28;20048;-67
2021/04/28 00:45:08;;;;;;;21.25;8.43;;;4.30;99.90;;;;;;5088323;28;20123;-67
2021/04/28 00:47:33;;;;;;;17.42;8.45;;;4.30;99.90;;;;;;5081741;28;20384;-66
2021/04/28 00:49:59;;;;;;;15.88;7.93;;;4.40;99.90;;;;;;5083148;28;20032;-67
2021/04/28 00:52:25;;;;;;;15.57;7.97;;;4.30;99.90;;;;;;5084643;28;20039;-66
2021/04/28 00:54:52;;;;;;;15.52;7.75;;;4.10;99.90;;;;;;5080665;28;20301;-67
2021/04/28 00:57:17;;;;;;;18.15;8.48;;;4.30;99.90;;;;;;5092174;28;20097;-67
2021/04/28 00:59:43;;;;;;;15.68;7.80;;;4.30;99.90;;;;;;5083238;28;20017;-66
2021/04/28 01:02:09;;;;;;;17.05;8.05;;;4.30;99.90;;;;;;5084543;28;20021;-67
2021/04/28 01:04:35;;;;;;;19.08;8.15;;;4.20;99.90;;;;;;5079674;28;20141;-68
2021/04/28 01:07:05;;;;;;;17.02;8.23;;;4.20;99.90;;;;;;5079870;28;20073;-65
2021/04/28 01:09:32;;;;;;;15.85;7.82;;;4.10;99.90;;;;;;5087381;28;20386;-66
2021/04/28 01:11:58;;;;;;;15.43;7.88;;;4.10;99.90;;;;;;5088062;28;20028;-66
2021/04/28 01:14:24;;;;;;;21.10;8.38;;;4.00;99.90;;;;;;5078539;28;20085;-65
2021/04/28 01:16:51;;;;;;;16.17;8.27;;;4.00;99.90;;;;;;5084770;28;20097;-67
2021/04/28 01:19:18;;;;;;;16.98;8.43;;;3.80;99.90;;;;;;5086951;28;20456;-67
2021/04/28 01:21:44;;;;;;;17.80;8.40;;;3.80;99.90;;;;;;5083830;28;20111;-68
2021/04/28 01:24:10;;;;;;;15.30;8.38;;;3.60;99.90;;;;;;5084150;28;20036;-66
2021/04/28 01:26:36;;;;;;;18.92;8.30;;;3.40;99.90;;;;;;5088752;28;20110;-68
2021/04/28 01:29:02;;;;;;;15.15;8.02;;;3.70;99.90;;;;;;5082190;28;20024;-67
2021/04/28 01:31:30;;;;;;;17.83;8.52;;;3.50;99.90;;;;;;5077376;28;20064;-68
2021/04/28 01:34:03;;;;;;;17.25;8.43;;;3.40;99.90;;;;;;5085745;28;20392;-66
2021/04/28 01:36:33;;;;;;;19.67;9.00;;;3.10;99.90;;;;;;5085469;28;20036;-68
2021/04/28 01:39:04;;;;;;;19.83;9.23;;;3.00;99.90;;;;;;5078434;28;20024;-65
2021/04/28 01:41:34;;;;;;;19.33;8.77;;;2.90;99.90;;;;;;5088921;28;20115;-66
2021/04/28 01:44:00;;;;;;;17.65;9.27;;;2.80;99.90;;;;;;5084003;28;20026;-67
2021/04/28 01:46:27;;;;;;;18.23;9.63;;;2.90;99.90;;;;;;5079754;28;20126;-66
2021/04/28 01:48:53;;;;;;;18.83;9.35;;;3.00;99.90;;;;;;5078943;28;20121;-66
2021/04/28 01:51:20;;;;;;;17.83;8.38;;;3.10;99.90;;;;;;5083678;28;20414;-66
2021/04/28 01:53:47;;;;;;;18.13;8.77;;;2.90;99.90;;;;;;5081213;28;20032;-65
2021/04/28 01:56:14;;;;;;;16.77;8.75;;;3.10;99.90;;;;;;5074390;28;20467;-65
2021/04/28 01:58:41;;;;;;;19.05;9.30;;;3.20;99.90;;;;;;5078805;28;20698;-65
2021/04/28 02:01:09;;;;;;;19.65;9.45;;;3.20;99.90;;;;;;5071517;28;20369;-66
2021/04/28 02:03:34;;;;;;;19.45;8.70;;;3.30;99.90;;;;;;5081132;28;20494;-66
2021/04/28 02:06:01;;;;;;;19.17;9.02;;;3.40;99.90;;;;;;5079822;28;20044;-66
2021/04/28 02:08:27;;;;;;;18.77;9.13;;;3.40;99.90;;;;;;5077508;28;20028;-66
2021/04/28 02:10:53;;;;;;;21.17;9.68;;;3.20;99.90;;;;;;5079490;28;20040;-66
2021/04/28 02:13:21;;;;;;;21.95;9.50;;;3.10;99.90;;;;;;5084680;28;20024;-66
2021/04/28 02:15:48;;;;;;;17.52;9.25;;;2.90;99.90;;;;;;5083904;28;20285;-66
2021/04/28 02:18:15;;;;;;;20.50;9.32;;;2.70;99.90;;;;;;5074953;28;20117;-66
2021/04/28 02:20:41;;;;;;;21.58;10.20;;;2.60;99.90;;;;;;5076452;28;20037;-66
2021/04/28 02:23:07;;;;;;;25.05;10.20;;;2.60;99.90;;;;;;5077783;28;20035;-66
2021/04/28 02:25:33;;;;;;;22.67;9.68;;;2.60;99.90;;;;;;5086408;28;20116;-66
2021/04/28 02:28:00;;;;;;;18.98;9.35;;;2.40;99.90;;;;;;5074134;28;20031;-66
2021/04/28 02:30:29;;;;;;;19.33;9.30;;;2.50;99.90;;;;;;5083825;28;20032;-66
2021/04/28 02:32:55;;;;;;;20.63;9.30;;;2.50;99.90;;;;;;5081926;28;20024;-66
2021/04/28 02:35:23;;;;;;;20.60;9.20;;;2.50;99.90;;;;;;5080460;28;20032;-66
2021/04/28 02:37:58;;;;;;;19.42;10.00;;;2.50;99.90;;;;;;5074707;28;20020;-66
2021/04/28 02:40:25;;;;;;;22.13;9.50;;;2.40;99.90;;;;;;5087299;28;20415;-66
2021/04/28 02:42:51;;;;;;;19.88;10.02;;;2.30;99.90;;;;;;5087458;28;20419;-66
2021/04/28 02:45:19;;;;;;;22.05;9.88;;;2.20;99.90;;;;;;5085204;28;20037;-66
2021/04/28 02:47:46;;;;;;;19.98;9.43;;;2.10;99.90;;;;;;5073566;28;20496;-66
2021/04/28 02:50:18;;;;;;;20.77;9.90;;;2.00;99.90;;;;;;5077174;28;20043;-66
2021/04/28 02:52:47;;;;;;;21.40;10.27;;;1.90;99.90;;;;;;5080846;28;20028;-66
2021/04/28 02:55:14;;;;;;;24.25;10.05;;;2.00;99.90;;;;;;5073433;28;20037;-66
2021/04/28 02:57:41;;;;;;;20.42;9.95;;;2.20;99.90;;;;;;5084792;28;20027;-66
2021/04/28 03:00:09;;;;;;;19.48;9.52;;;2.20;99.90;;;;;;5071173;28;20044;-66
2021/04/28 03:02:37;;;;;;;22.08;9.68;;;2.20;99.90;;;;;;5075278;28;20029;-66
2021/04/28 03:05:06;;;;;;;20.25;9.93;;;2.40;99.90;;;;;;5088231;28;20055;-66
2021/04/28 03:07:32;;;;;;;23.55;9.68;;;2.50;99.90;;;;;;5086126;28;20461;-66
2021/04/28 03:09:59;;;;;;;19.73;9.82;;;2.40;99.90;;;;;;5076290;28;20549;-66
2021/04/28 03:12:25;;;;;;;22.65;10.68;;;2.30;99.90;;;;;;5084993;28;20032;-66
2021/04/28 03:14:51;;;;;;;21.25;9.82;;;2.20;99.90;;;;;;5080579;28;20052;-67
2021/04/28 03:17:16;;;;;;;21.50;9.82;;;2.10;99.90;;;;;;5076728;28;20076;-66
2021/04/28 03:19:42;;;;;;;21.88;10.68;;;2.00;99.90;;;;;;5075933;28;20024;-66
2021/04/28 03:22:08;;;;;;;22.10;10.60;;;2.10;99.90;;;;;;5082185;28;20040;-65
2021/04/28 03:24:33;;;;;;;20.02;10.10;;;2.00;99.90;;;;;;5086529;28;20035;-66
2021/04/28 03:27:09;;;;;;;22.95;11.23;;;1.90;99.90;;;;;;5082067;28;20115;-65
2021/04/28 03:29:35;;;;;;;23.27;10.45;;;1.90;99.90;;;;;;5089256;28;20425;-66
2021/04/28 03:32:01;;;;;;;21.45;10.68;;;1.70;99.90;;;;;;5076751;28;20033;-66
2021/04/28 03:34:27;;;;;;;22.63;10.57;;;1.50;99.90;;;;;;5086881;28;20043;-66
2021/04/28 03:36:52;;;;;;;20.73;10.63;;;1.30;99.90;;;;;;5088864;28;20038;-66
2021/04/28 03:39:18;;;;;;;24.00;10.73;;;1.40;99.90;;;;;;5084396;28;20032;-66
2021/04/28 03:41:44;;;;;;;23.75;11.10;;;1.30;99.90;;;;;;5090519;28;20035;-66
2021/04/28 03:44:09;;;;;;;21.65;11.25;;;1.20;99.90;;;;;;5079713;28;20473;-66
2021/04/28 03:46:35;;;;;;;26.55;10.88;;;1.10;99.90;;;;;;5077016;28;20143;-66
2021/04/28 03:49:00;;;;;;;20.88;10.45;;;1.20;99.90;;;;;;5077949;28;20028;-66
2021/04/28 03:51:26;;;;;;;25.25;11.27;;;1.40;99.90;;;;;;5082170;28;20472;-66
2021/04/28 03:53:52;;;;;;;24.05;11.18;;;1.40;99.90;;;;;;5079703;28;20101;-65
2021/04/28 03:56:18;;;;;;;22.50;10.48;;;1.40;99.90;;;;;;5083349;28;20051;-65
2021/04/28 03:58:44;;;;;;;21.52;10.80;;;1.50;99.90;;;;;;5086241;28;20059;-65
2021/04/28 04:01:09;;;;;;;24.10;11.50;;;1.40;99.90;;;;;;5079645;28;20119;-65
2021/04/28 04:03:35;;;;;;;24.98;12.27;;;1.30;99.90;;;;;;5080558;28;20031;-65
2021/04/28 04:06:01;;;;;;;25.27;11.73;;;1.40;99.90;;;;;;5079105;28;20036;-64
2021/04/28 04:08:26;;;;;;;25.48;11.70;;;1.30;99.90;;;;;;5080386;28;20392;-66
2021/04/28 04:10:53;;;;;;;21.38;11.00;;;1.30;99.90;;;;;;5073552;28;20027;-66
2021/04/28 04:13:19;;;;;;;22.95;11.48;;;1.30;99.90;;;;;;5072807;28;20089;-66
2021/04/28 04:15:44;;;;;;;23.77;11.25;;;1.40;99.90;;;;;;5082724;28;20020;-66
2021/04/28 04:18:10;;;;;;;21.02;11.07;;;1.30;99.90;;;;;;5082880;28;20029;-66
2021/04/28 04:20:35;;;;;;;24.13;11.77;;;1.10;99.90;;;;;;5072285;28;20054;-66
2021/04/28 04:23:01;;;;;;;28.27;11.63;;;1.00;99.90;;;;;;5077270;28;20380;-65
2021/04/28 04:25:27;;;;;;;28.17;12.50;;;0.90;99.90;;;;;;5079542;28;20029;-65
2021/04/28 04:27:52;;;;;;;31.08;12.75;;;0.90;99.90;;;;;;5074869;28;20112;-65
2021/04/28 04:30:19;;;;;;;29.10;13.02;;;0.90;99.90;;;;;;5072393;28;21557;-66
2021/04/28 04:32:44;;;;;;;24.30;12.52;;;0.90;99.90;;;;;;5078526;28;20035;-66
2021/04/28 04:35:11;;;;;;;25.35;12.23;;;1.00;99.90;;;;;;5073494;28;20036;-67
2021/04/28 04:37:36;;;;;;;31.00;14.40;;;1.20;99.90;;;;;;5072467;28;20450;-67
2021/04/28 04:40:04;;;;;;;24.65;13.02;;;1.30;99.90;;;;;;5071503;28;20016;-67
2021/04/28 04:42:29;;;;;;;29.88;12.93;;;1.40;99.90;;;;;;5076882;28;20357;-66
2021/04/28 04:44:55;;;;;;;23.35;12.35;;;1.40;99.90;;;;;;5070804;28;20028;-66
2021/04/28 04:47:21;;;;;;;24.80;11.93;;;1.30;99.90;;;;;;5073530;28;20085;-66
2021/04/28 04:49:46;;;;;;;24.90;11.77;;;1.30;99.90;;;;;;5088001;28;20099;-66
2021/04/28 04:52:12;;;;;;;25.20;12.18;;;1.30;99.90;;;;;;5076954;28;20044;-66
2021/04/28 04:54:38;;;;;;;29.98;11.45;;;1.40;99.90;;;;;;5075418;28;20087;-66
2021/04/28 04:57:04;;;;;;;28.05;11.50;;;1.40;99.90;;;;;;5076769;28;20028;-66
2021/04/28 04:59:30;;;;;;;24.90;11.73;;;1.60;99.90;;;;;;5076261;28;20508;-66
2021/04/28 05:01:55;;;;;;;25.52;12.07;;;1.80;99.90;;;;;;5076217;28;20036;-65
2021/04/28 05:04:21;;;;;;;26.10;12.45;;;1.90;99.90;;;;;;5077512;28;20609;-65
2021/04/28 05:06:46;;;;;;;23.30;11.88;;;2.00;99.90;;;;;;5080337;28;20039;-66
2021/04/28 05:09:13;;;;;;;23.45;11.18;;;2.00;99.90;;;;;;5081521;28;20024;-65
2021/04/28 05:11:38;;;;;;;24.50;11.93;;;2.20;99.90;;;;;;5073969;28;20089;-65
2021/04/28 05:14:04;;;;;;;20.45;11.07;;;2.30;99.90;;;;;;5078276;28;20033;-66
2021/04/28 05:16:33;;;;;;;27.23;11.43;;;2.60;99.90;;;;;;5088457;28;20390;-65
2021/04/28 05:18:59;;;;;;;28.50;11.45;;;2.90;99.90;;;;;;5079499;28;20504;-66
2021/04/28 05:21:25;;;;;;;23.58;11.10;;;3.10;99.90;;;;;;5076472;28;20039;-69
2021/04/28 05:23:50;;;;;;;24.65;10.90;;;3.30;99.90;;;;;;5073926;28;20533;-71
2021/04/28 05:26:16;;;;;;;24.10;10.82;;;3.40;99.90;;;;;;5084597;28;20036;-69
2021/04/28 05:28:41;;;;;;;21.05;11.38;;;3.50;99.90;;;;;;5076896;28;20033;-70
2021/04/28 05:31:08;;;;;;;20.85;11.45;;;3.70;99.90;;;;;;5077481;28;20081;-70
2021/04/28 05:33:35;;;;;;;21.45;10.93;;;3.80;99.90;;;;;;5074816;28;20136;-70
2021/04/28 05:36:02;;;;;;;26.20;11.40;;;3.90;99.90;;;;;;5075446;28;20036;-70
2021/04/28 05:38:27;;;;;;;22.42;10.90;;;4.00;99.90;;;;;;5074083;28;20019;-69
2021/04/28 05:40:53;;;;;;;20.75;10.32;;;4.10;99.90;;;;;;5084055;28;20400;-72
2021/04/28 05:43:18;;;;;;;23.48;11.55;;;4.20;99.90;;;;;;5083343;28;20039;-71
2021/04/28 05:45:44;;;;;;;22.38;11.15;;;4.30;99.90;;;;;;5076271;28;20040;-70
2021/04/28 05:48:15;;;;;;;20.52;10.70;;;4.40;99.90;;;;;;5077466;28;20055;-71
2021/04/28 05:50:42;;;;;;;23.25;10.85;;;4.60;99.90;;;;;;5076214;28;20024;-73
2021/04/28 05:53:09;;;;;;;20.73;11.13;;;4.70;99.90;;;;;;5069687;28;20054;-72
2021/04/28 05:55:35;;;;;;;23.63;11.27;;;4.80;99.90;;;;;;5072026;28;20403;-73
2021/04/28 05:58:02;;;;;;;23.08;11.00;;;5.00;99.90;;;;;;5074007;28;20056;-73
2021/04/28 06:00:28;;;;;;;30.38;10.98;;;5.30;99.90;;;;;;5084890;28;20529;-72
2021/04/28 06:02:54;;;;;;;21.10;11.00;;;5.50;99.90;;;;;;5079194;28;20059;-72
2021/04/28 06:05:20;;;;;;;22.98;11.73;;;5.60;99.90;;;;;;5075507;28;20101;-72
2021/04/28 06:07:46;;;;;;;21.27;11.05;;;5.70;99.90;;;;;;5081775;28;20024;-72
2021/04/28 06:10:12;;;;;;;20.73;10.95;;;5.90;99.90;;;;;;5068646;28;20456;-72
2021/04/28 06:12:38;;;;;;;23.50;10.95;;;6.00;99.90;;;;;;5076663;28;20048;-72
2021/04/28 06:15:04;;;;;;;22.88;10.75;;;6.30;99.90;;;;;;5076187;28;20381;-72
2021/04/28 06:17:32;;;;;;;24.55;11.15;;;6.30;99.90;;;;;;5080060;28;20068;-72
2021/04/28 06:19:59;;;;;;;22.02;10.07;;;6.50;99.90;;;;;;5077649;28;20601;-73
2021/04/28 06:22:24;;;;;;;20.30;10.32;;;6.70;99.90;;;;;;5076554;28;20174;-72
2021/04/28 06:24:50;;;;;;;21.67;10.25;;;6.70;99.90;;;;;;5075700;28;20152;-72
2021/04/28 06:27:16;;;;;;;19.33;9.30;;;6.90;99.90;;;;;;5067512;28;20663;-72
2021/04/28 06:29:41;;;;;;;19.95;10.27;;;7.10;99.90;;;;;;5072702;28;21023;-72
2021/04/28 06:32:08;;;;;;;27.05;10.07;;;7.10;99.90;;;;;;5063854;28;20402;-72
2021/04/28 06:34:34;;;;;;;20.13;9.70;;;7.30;99.90;;;;;;5073976;28;20479;-72
2021/04/28 06:37:00;;;;;;;18.95;9.65;;;7.50;99.90;;;;;;5080737;28;20039;-72
2021/04/28 06:39:26;;;;;;;21.55;10.25;;;7.70;99.90;;;;;;5082340;28;20596;-74
2021/04/28 06:41:51;;;;;;;17.98;9.30;;;7.80;99.90;;;;;;5072656;28;20767;-73
2021/04/28 06:44:17;;;;;;;20.92;9.30;;;8.00;99.90;;;;;;5072374;28;20025;-74
2021/04/28 06:46:42;;;;;;;21.75;9.88;;;8.10;99.90;;;;;;5078250;28;20081;-73
2021/04/28 06:49:09;;;;;;;18.35;9.50;;;8.20;99.90;;;;;;5074790;28;20460;-74
2021/04/28 06:51:36;;;;;;;20.20;9.82;;;8.10;99.90;;;;;;5075398;28;20639;-74
2021/04/28 06:54:02;;;;;;;18.00;9.27;;;8.40;99.90;;;;;;5081178;28;20134;-74
2021/04/28 06:56:29;;;;;;;21.30;9.00;;;8.60;99.90;;;;;;5072679;28;20021;-74
2021/04/28 06:58:55;;;;;;;20.67;9.35;;;8.60;99.90;;;;;;5078186;28;20085;-74
2021/04/28 07:01:21;;;;;;;18.77;9.70;;;8.80;99.90;;;;;;5079293;28;20573;-74
2021/04/28 07:03:47;;;;;;;19.13;9.45;;;8.90;99.90;;;;;;5085739;28;20035;-74
2021/04/28 07:06:13;;;;;;;17.08;9.27;;;9.10;99.90;;;;;;5086471;28;20043;-74
2021/04/28 07:08:39;;;;;;;20.02;8.88;;;9.30;99.90;;;;;;5088578;28;20111;-74
2021/04/28 07:11:06;;;;;;;20.83;9.13;;;9.40;99.90;;;;;;5086156;28;20043;-75
2021/04/28 07:13:32;;;;;;;18.73;8.82;;;9.70;99.90;;;;;;5086446;28;20484;-74
2021/04/28 07:15:57;;;;;;;17.38;8.52;;;9.80;99.90;;;;;;5086681;28;20035;-74
2021/04/28 07:18:23;;;;;;;20.40;8.93;;;10.00;99.90;;;;;;5086171;28;20027;-75
2021/04/28 07:20:49;;;;;;;15.40;7.65;;;10.00;99.60;;;;;;5085475;28;20032;-75
2021/04/28 07:23:15;;;;;;;20.35;8.57;;;10.20;99.10;;;;;;5087239;28;20114;-74
2021/04/28 07:25:40;;;;;;;17.45;8.25;;;10.40;97.80;;;;;;5086181;28;20165;-74
2021/04/28 07:28:06;;;;;;;17.27;8.27;;;10.50;97.40;;;;;;5084673;28;20359;-75
2021/04/28 07:30:32;;;;;;;23.33;8.73;;;10.70;96.70;;;;;;5089283;28;20039;-75
2021/04/28 07:32:59;;;;;;;20.50;8.48;;;10.90;96.50;;;;;;5088169;28;20104;-75
2021/04/28 07:35:25;;;;;;;19.35;8.98;;;10.90;94.80;;;;;;5085414;28;20129;-74
2021/04/28 07:37:51;;;;;;;18.85;7.95;;;11.10;94.70;;;;;;5086494;28;20028;-75
2021/04/28 07:40:21;;;;;;;17.33;8.05;;;11.20;94.80;;;;;;5089744;28;20031;-75
2021/04/28 07:42:47;;;;;;;16.52;8.40;;;11.30;95.10;;;;;;5088921;28;20509;-75
2021/04/28 07:45:14;;;;;;;15.68;8.38;;;11.40;95.00;;;;;;5084308;28;20047;-75
2021/04/28 07:47:39;;;;;;;19.33;8.27;;;11.60;95.30;;;;;;5088644;28;20024;-75
2021/04/28 07:50:06;;;;;;;16.35;8.93;;;11.70;94.80;;;;;;5084774;28;20472;-75
2021/04/28 07:52:31;;;;;;;17.63;7.85;;;11.90;94.00;;;;;;5085737;28;20040;-75
2021/04/28 07:54:57;;;;;;;18.35;8.75;;;12.10;93.20;;;;;;5085857;28;20047;-75
2021/04/28 07:57:23;;;;;;;15.73;8.38;;;12.10;92.80;;;;;;5084862;28;20032;-75
2021/04/28 07:59:48;;;;;;;18.83;8.95;;;12.30;92.60;;;;;;5085901;28;20089;-75
2021/04/28 08:02:14;;;;;;;19.20;8.52;;;12.40;92.70;;;;;;5084797;28;20024;-75
2021/04/28 08:04:40;;;;;;;21.30;8.82;;;12.70;93.30;;;;;;5089917;28;20016;-75
2021/04/28 08:07:07;;;;;;;18.02;8.43;;;13.00;92.50;;;;;;5084909;28;20055;-75
2021/04/28 08:09:35;;;;;;;17.08;8.85;;;13.10;90.60;;;;;;5085927;28;20506;-75
2021/04/28 08:12:02;;;;;;;16.52;8.52;;;13.50;90.60;;;;;;5076918;28;20033;-75
2021/04/28 08:14:28;;;;;;;21.73;8.40;;;14.10;88.40;;;;;;5088806;28;20114;-75
2021/04/28 08:16:53;;;;;;;22.60;9.18;;;14.60;86.10;;;;;;5079358;28;20039;-75
2021/04/28 08:19:36;;;;;;;18.83;9.07;;;15.60;83.40;;;;;;5075506;28;20036;-75
2021/04/28 08:22:12;;;;;;;19.63;8.95;;;15.50;80.60;;;;;;5071806;28;20021;-75
2021/04/28 08:24:38;;;;;;;19.05;10.35;;;16.00;77.50;;;;;;5083393;28;20392;-76
2021/04/28 08:27:05;;;;;;;25.27;9.73;;;16.10;77.40;;;;;;5073333;28;20025;-76
2021/04/28 08:29:31;;;;;;;18.23;9.13;;;16.10;75.70;;;;;;5074575;28;20527;-75
2021/04/28 08:31:57;;;;;;;17.98;9.23;;;16.00;77.40;;;;;;5069266;28;20108;-75
2021/04/28 08:34:22;;;;;;;15.63;9.02;;;16.30;75.20;;;;;;5070699;28;20096;-76
2021/04/28 08:36:48;;;;;;;15.45;8.20;;;17.00;71.00;;;;;;5080758;28;20414;-75
2021/04/28 08:39:14;;;;;;;17.13;8.65;;;17.50;70.90;;;;;;5082643;28;20028;-74
2021/04/28 08:41:39;;;;;;;21.73;9.38;;;18.30;68.00;;;;;;5084463;28;20127;-74
2021/04/28 08:44:06;;;;;;;17.50;9.40;;;18.70;65.00;;;;;;5078207;28;20021;-75
2021/04/28 08:46:32;;;;;;;15.63;8.55;;;18.90;67.20;;;;;;5088501;28;20456;-76
2021/04/28 08:48:58;;;;;;;16.35;8.48;;;18.40;64.40;;;;;;5082786;28;20114;-76
2021/04/28 08:51:24;;;;;;;21.08;8.43;;;17.60;64.00;;;;;;5087782;28;20536;-76
2021/04/28 08:53:50;;;;;;;18.00;8.30;;;17.70;65.60;;;;;;5082608;28;20222;-76
2021/04/28 08:56:16;;;;;;;15.77;7.22;;;19.30;63.50;;;;;;5079311;28;20102;-76
2021/04/28 08:58:42;;;;;;;15.68;7.65;;;19.20;58.60;;;;;;5083890;27;20146;-76
2021/04/28 09:01:08;;;;;;;16.73;7.60;;;19.00;57.10;;;;;;5076116;28;20099;-76
2021/04/28 09:03:41;;;;;;;14.57;7.47;;;18.80;58.30;;;;;;5082633;28;20420;-76
2021/04/28 09:06:33;;;;;;;12.35;6.90;;;19.60;58.50;;;;;;5067918;28;20021;-76
2021/04/28 09:09:15;;;;;;;16.00;7.47;;;19.40;57.70;;;;;;5074490;28;20544;-76
2021/04/28 09:11:44;;;;;;;12.63;6.88;;;21.20;55.90;;;;;;5085629;28;20393;-76
2021/04/28 09:14:16;;;;;;;20.25;7.20;;;20.70;55.00;;;;;;5082211;28;20684;-75
2021/04/28 09:16:45;;;;;;;15.68;7.47;;;20.70;54.60;;;;;;5077515;28;20400;-76
2021/04/28 09:19:29;;;;;;;12.48;7.53;;;20.40;53.20;;;;;;5080862;28;20028;-76
2021/04/28 09:22:00;;;;;;;19.33;8.13;;;19.40;54.30;;;;;;5068986;28;20040;-76
2021/04/28 09:24:28;;;;;;;14.82;7.53;;;19.30;55.00;;;;;;5084078;28;20470;-76
2021/04/28 09:26:56;;;;;;;13.90;6.72;;;19.00;54.60;;;;;;5085123;28;20042;-76
2021/04/28 09:29:30;;;;;;;18.52;7.43;;;20.50;55.60;;;;;;5077696;28;20024;-76
2021/04/28 09:32:04;;;;;;;15.18;7.88;;;20.00;54.90;;;;;;5075173;28;20109;-76
2021/04/28 09:34:39;;;;;;;15.82;8.43;;;20.10;54.60;;;;;;5082222;28;20027;-76
2021/04/28 09:37:24;;;;;;;16.10;7.75;;;19.40;55.60;;;;;;5072964;28;20024;-75
2021/04/28 09:39:52;;;;;;;18.40;8.48;;;20.30;54.20;;;;;;5085027;28;20030;-76
2021/04/28 09:42:19;;;;;;;17.38;8.05;;;21.00;55.80;;;;;;5085058;28;20511;-76
2021/04/28 09:44:49;;;;;;;14.73;7.65;;;21.50;54.50;;;;;;5077439;28;20032;-76
2021/04/28 09:47:21;;;;;;;13.80;8.10;;;20.90;55.00;;;;;;5075892;28;20105;-76
2021/04/28 09:50:00;;;;;;;13.75;8.13;;;20.30;54.20;;;;;;5076613;28;20108;-76
2021/04/28 09:52:29;;;;;;;14.18;8.23;;;19.60;55.40;;;;;;5070551;28;20079;-76
2021/04/28 09:54:57;;;;;;;15.88;8.27;;;20.30;53.40;;;;;;5072853;28;20050;-76
2021/04/28 09:57:40;;;;;;;14.52;8.07;;;20.60;55.00;;;;;;5076640;28;20462;-74
2021/04/28 10:00:21;;;;;;;14.75;8.00;;;20.60;54.40;;;;;;5077057;28;20361;-74
2021/04/28 10:03:04;;;;;;;14.18;7.38;;;20.90;55.20;;;;;;5072645;28;20059;-76
2021/04/28 10:05:35;;;;;;;19.90;8.52;;;22.00;53.60;;;;;;5069955;28;20059;-76
2021/04/28 10:08:08;;;;;;;14.07;7.68;;;23.60;50.50;;;;;;5079014;28;20028;-76
2021/04/28 10:10:35;;;;;;;15.43;7.50;;;22.90;49.60;;;;;;5076433;28;20116;-76
2021/04/28 10:13:01;;;;;;;15.43;8.45;;;21.60;48.00;;;;;;5066509;28;20526;-76
2021/04/28 10:15:26;;;;;;;14.93;8.15;;;21.60;52.00;;;;;;5079322;28;20032;-76
2021/04/28 10:17:54;;;;;;;15.90;7.32;;;22.70;50.10;;;;;;5074009;28;20556;-76
2021/04/28 10:20:20;;;;;;;14.48;7.00;;;23.00;49.20;;;;;;5061005;28;20020;-76
2021/04/28 10:22:51;;;;;;;15.57;7.00;;;22.50;50.00;;;;;;5059257;28;20095;-76
2021/04/28 10:25:18;;;;;;;14.45;7.38;;;23.10;48.80;;;;;;5074116;28;20040;-74
2021/04/28 10:27:45;;;;;;;16.20;8.13;;;23.10;47.10;;;;;;5051355;28;20080;-76
2021/04/28 10:30:15;;;;;;;13.65;8.02;;;22.50;48.90;;;;;;5058760;28;20028;-75
2021/04/28 10:32:42;;;;;;;14.18;7.50;;;22.80;49.90;;;;;;5053546;28;20055;-76
2021/04/28 10:35:14;;;;;;;13.45;7.43;;;23.30;47.70;;;;;;5057463;28;20017;-75
2021/04/28 10:37:42;;;;;;;15.40;7.10;;;23.00;47.00;;;;;;5056330;28;20036;-77
2021/04/28 10:40:13;;;;;;;19.42;7.38;;;23.20;47.30;;;;;;5060414;28;20024;-74
2021/04/28 10:42:40;;;;;;;14.68;7.93;;;23.70;47.60;;;;;;5056548;28;20856;-74
2021/04/28 10:45:18;;;;;;;13.52;7.60;;;23.80;45.40;;;;;;5058266;28;20062;-74
2021/04/28 10:47:46;;;;;;;15.95;7.70;;;23.60;47.10;;;;;;5054515;28;20024;-75
2021/04/28 10:50:22;;;;;;;13.70;7.85;;;23.30;47.70;;;;;;5059055;28;20154;-75
2021/04/28 10:52:53;;;;;;;16.58;8.07;;;23.60;46.50;;;;;;5056566;28;20377;-74
2021/04/28 10:55:40;;;;;;;14.45;7.20;;;23.10;47.10;;;;;;5076596;28;20153;-75
2021/04/28 10:58:28;;;;;;;14.68;7.35;;;24.00;45.40;;;;;;5072146;28;21623;-75
2021/04/28 11:03:45;;;;;;;14.55;6.97;;;23.70;47.30;;;;;;5073099;28;20121;-75
2021/04/28 11:06:17;;;;;;;13.15;6.63;;;25.40;45.70;;;;;;5069571;28;20036;-75
2021/04/28 11:09:04;;;;;;;11.80;6.88;;;25.80;45.30;;;;;;5076678;28;20024;-76
2021/04/28 11:11:29;;;;;;;13.10;6.38;;;26.60;43.00;;;;;;5078792;28;20441;-75
2021/04/28 11:14:21;;;;;;;13.95;6.35;;;26.10;43.50;;;;;;5078200;28;20024;-75
2021/04/28 11:17:13;;;;;;;12.93;6.78;;;25.40;43.90;;;;;;5076798;28;20154;-75
2021/04/28 11:19:39;;;;;;;15.43;6.65;;;24.80;41.80;;;;;;5079414;28;20032;-75
2021/04/28 11:22:29;;;;;;;13.82;7.10;;;24.90;44.40;;;;;;5073667;28;20036;-76
2021/04/28 11:25:10;;;;;;;15.57;6.55;;;25.00;42.30;;;;;;5081109;28;20060;-75
2021/04/28 11:28:02;;;;;;;12.60;6.25;;;25.10;43.10;;;;;;5078512;28;20024;-75
2021/04/28 11:30:27;;;;;;;11.95;6.10;;;25.50;43.00;;;;;;5077563;28;20024;-75
2021/04/28 11:33:20;;;;;;;11.60;6.85;;;25.50;41.70;;;;;;5075861;28;20027;-75
2021/04/28 11:36:08;;;;;;;13.38;6.53;;;25.40;42.50;;;;;;5066433;28;20123;-75
2021/04/28 11:38:40;;;;;;;14.35;6.38;;;26.50;44.00;;;;;;5072224;28;20017;-76
2021/04/28 11:41:10;;;;;;;12.25;6.35;;;26.80;43.70;;;;;;5076123;28;20137;-76
2021/04/28 11:43:42;;;;;;;12.07;6.50;;;26.60;40.60;;;;;;5080603;28;20015;-77
2021/04/28 11:46:12;;;;;;;20.30;6.50;;;25.30;41.20;;;;;;5087701;28;20145;-76
2021/04/28 11:48:40;;;;;;;12.77;6.30;;;25.60;40.60;;;;;;5081097;28;20024;-76
2021/04/28 11:51:15;;;;;;;12.70;7.10;;;26.20;41.10;;;;;;5079101;28;20537;-76
2021/04/28 11:53:52;;;;;;;11.48;6.13;;;24.50;41.50;;;;;;5068211;28;20043;-76
2021/04/28 11:56:27;;;;;;;14.10;7.35;;;25.40;42.30;;;;;;5064102;28;20067;-76
2021/04/28 11:58:53;;;;;;;14.90;7.53;;;23.60;43.70;;;;;;5067823;28;20064;-76
2021/04/28 12:01:18;;;;;;;19.20;6.60;;;23.60;42.20;;;;;;5065500;28;20056;-76
2021/04/28 12:03:56;;;;;;;13.32;7.43;;;24.70;43.60;;;;;;5067918;28;20411;-76
2021/04/28 12:06:43;;;;;;;14.68;7.28;;;24.00;43.10;;;;;;5064224;28;20068;-76
2021/04/28 12:09:30;;;;;;;13.40;6.85;;;23.50;42.70;;;;;;5061958;28;20032;-76
2021/04/28 12:12:18;;;;;;;12.00;5.85;;;25.40;43.90;;;;;;5061778;28;20033;-76
2021/04/28 12:14:49;;;;;;;14.88;6.88;;;27.20;40.30;;;;;;5059376;28;20168;-78
2021/04/28 12:17:23;;;;;;;12.32;7.45;;;27.40;40.40;;;;;;5054851;28;20028;-77
2021/04/28 12:19:51;;;;;;;12.18;6.22;;;26.60;38.90;;;;;;5065858;28;20039;-76
2021/04/28 12:22:19;;;;;;;15.27;6.63;;;25.80;40.40;;;;;;5067090;28;20028;-76
2021/04/28 12:24:49;;;;;;;13.02;7.25;;;26.00;42.20;;;;;;5077505;28;20047;-77
2021/04/28 12:27:44;;;;;;;13.43;6.68;;;26.40;40.50;;;;;;5081634;28;20111;-76
2021/04/28 12:30:15;;;;;;;13.27;6.88;;;26.40;40.50;;;;;;5079509;28;20122;-76
2021/04/28 12:32:45;;;;;;;12.88;7.50;;;27.00;39.90;;;;;;5092320;28;20027;-76
2021/04/28 12:35:24;;;;;;;13.07;7.35;;;25.90;40.10;;;;;;5084527;28;20036;-76
2021/04/28 12:38:13;;;;;;;13.63;7.28;;;25.50;40.70;;;;;;5084461;28;20031;-76
2021/04/28 12:40:57;;;;;;;12.10;6.82;;;24.80;40.90;;;;;;5085646;28;20012;-76
2021/04/28 12:43:29;;;;;;;12.15;6.10;;;25.70;41.10;;;;;;5078863;28;20029;-77
2021/04/28 12:46:11;;;;;;;11.13;6.45;;;28.40;40.10;;;;;;5077990;28;20070;-77
2021/04/28 12:49:05;;;;;;;11.25;6.47;;;29.80;38.80;;;;;;5080287;28;20459;-76
2021/04/28 12:51:32;;;;;;;13.77;7.18;;;29.90;37.70;;;;;;5080472;28;20025;-76